createdAt,value
2022-10-02T00:00:01.100Z,14.42
2022-10-02T00:01:01.099Z,14.42
2022-10-02T00:02:01.095Z,14.45
2022-10-02T00:03:01.093Z,14.37
2022-10-02T00:04:01.153Z,14.40
2022-10-02T00:05:01.111Z,14.43
2022-10-02T00:06:01.090Z,14.43
2022-10-02T00:07:01.087Z,14.40
2022-10-02T00:08:01.087Z,14.57
2022-10-02T00:09:01.089Z,14.50
2022-10-02T00:10:01.083Z,14.60
2022-10-02T00:11:01.110Z,14.65
2022-10-02T00:12:01.081Z,14.62
2022-10-02T00:13:01.081Z,14.57
2022-10-02T00:14:01.081Z,14.60
2022-10-02T00:15:01.078Z,14.62
2022-10-02T00:16:01.172Z,14.57
2022-10-02T00:17:01.076Z,14.62
2022-10-02T00:18:01.073Z,14.65
2022-10-02T00:19:01.077Z,14.80
2022-10-02T00:20:01.069Z,14.84
2022-10-02T00:21:01.074Z,14.77
2022-10-02T00:22:01.071Z,14.81
2022-10-02T00:23:01.071Z,14.89
2022-10-02T00:24:01.071Z,14.80
2022-10-02T00:25:01.089Z,14.75
2022-10-02T00:26:01.062Z,14.75
2022-10-02T00:27:01.086Z,14.65
2022-10-02T00:28:01.172Z,14.58
2022-10-02T00:29:01.065Z,14.75
2022-10-02T00:30:01.060Z,14.80
2022-10-02T00:31:01.060Z,14.72
2022-10-02T00:32:01.163Z,14.83
2022-10-02T00:33:01.061Z,14.91
2022-10-02T00:34:01.061Z,14.83
2022-10-02T00:35:01.060Z,14.77
2022-10-02T00:36:01.058Z,14.77
2022-10-02T00:37:01.054Z,14.80
2022-10-02T00:38:01.053Z,14.84
2022-10-02T00:39:01.056Z,14.81
2022-10-02T00:40:01.057Z,14.75
2022-10-02T00:41:01.049Z,14.57
2022-10-02T00:42:01.047Z,14.64
2022-10-02T00:43:01.074Z,14.65
2022-10-02T00:44:01.049Z,14.68
2022-10-02T00:45:01.050Z,14.78
2022-10-02T00:46:01.099Z,14.77
2022-10-02T00:47:01.045Z,14.65
2022-10-02T00:48:01.045Z,14.73
2022-10-02T00:49:01.041Z,14.65
2022-10-02T00:50:01.037Z,14.72
2022-10-02T00:51:01.043Z,14.65
2022-10-02T00:52:01.039Z,14.65
2022-10-02T00:53:01.038Z,14.65
2022-10-02T00:54:01.035Z,14.64
2022-10-02T00:55:01.039Z,14.61
2022-10-02T00:56:01.039Z,14.65
2022-10-02T00:57:01.034Z,14.78
2022-10-02T00:58:01.035Z,14.69
2022-10-02T00:59:01.050Z,14.73
2022-10-02T01:00:01.029Z,14.77
2022-10-02T01:01:01.081Z,14.62
2022-10-02T01:02:01.068Z,14.65
2022-10-02T01:03:01.035Z,14.68
2022-10-02T01:04:01.025Z,14.62
2022-10-02T01:05:01.027Z,14.68
2022-10-02T01:06:01.031Z,14.69
2022-10-02T01:07:01.024Z,14.51
2022-10-02T01:08:01.026Z,14.62
2022-10-02T01:09:01.021Z,14.57
2022-10-02T01:10:01.017Z,14.68
2022-10-02T01:11:01.017Z,14.65
2022-10-02T01:12:01.019Z,14.69
2022-10-02T01:13:01.014Z,14.65
2022-10-02T01:14:01.012Z,14.58
2022-10-02T01:15:01.037Z,14.50
2022-10-02T01:16:01.109Z,14.62
2022-10-02T01:17:01.025Z,14.58
2022-10-02T01:18:01.008Z,14.69
2022-10-02T01:19:01.013Z,14.73
2022-10-02T01:20:01.014Z,14.65
2022-10-02T01:21:01.005Z,14.51
2022-10-02T01:22:01.006Z,14.60
2022-10-02T01:23:01.007Z,14.61
2022-10-02T01:24:01.008Z,14.69
2022-10-02T01:25:01.007Z,14.54
2022-10-02T01:26:01.003Z,14.58
2022-10-02T01:27:01.008Z,14.72
2022-10-02T01:28:01.068Z,14.60
2022-10-02T01:29:01.002Z,14.65
2022-10-02T01:30:00.998Z,14.69
2022-10-02T01:31:01.070Z,14.64
2022-10-02T01:32:01.073Z,14.64
2022-10-02T01:33:00.999Z,14.61
2022-10-02T01:34:00.993Z,14.60
2022-10-02T01:35:01.002Z,14.55
2022-10-02T01:36:00.991Z,14.52
2022-10-02T01:37:00.994Z,14.46
2022-10-02T01:38:00.985Z,14.45
2022-10-02T01:39:00.990Z,14.39
2022-10-02T01:40:00.988Z,14.58
2022-10-02T01:41:00.989Z,14.58
2022-10-02T01:42:00.986Z,14.58
2022-10-02T01:43:00.990Z,14.55
2022-10-02T01:44:00.984Z,14.51
2022-10-02T01:45:00.986Z,14.58
2022-10-02T01:46:01.131Z,14.52
2022-10-02T01:47:01.002Z,14.51
2022-10-02T01:48:00.978Z,14.51
2022-10-02T01:49:00.978Z,14.45
2022-10-02T01:50:00.972Z,14.42
2022-10-02T01:51:00.977Z,14.50
2022-10-02T01:52:00.971Z,14.52
2022-10-02T01:53:00.980Z,14.58
2022-10-02T01:54:00.976Z,14.47
2022-10-02T01:55:00.970Z,14.47
2022-10-02T01:56:00.973Z,14.47
2022-10-02T01:57:00.969Z,14.46
2022-10-02T01:58:00.971Z,14.32
2022-10-02T01:59:00.969Z,14.40
2022-10-02T02:00:00.969Z,14.36
2022-10-02T02:01:01.016Z,14.45
2022-10-02T02:02:01.005Z,14.43
2022-10-02T02:03:00.986Z,14.45
2022-10-02T02:04:00.964Z,14.32
2022-10-02T02:05:00.961Z,14.43
2022-10-02T02:06:00.961Z,14.42
2022-10-02T02:07:00.957Z,14.45
2022-10-02T02:08:00.958Z,14.55
2022-10-02T02:09:02.080Z,14.55
2022-10-02T02:10:00.955Z,14.54
2022-10-02T02:11:00.955Z,14.52
2022-10-02T02:12:00.949Z,14.43
2022-10-02T02:13:00.954Z,14.42
2022-10-02T02:14:00.951Z,14.39
2022-10-02T02:15:00.952Z,14.22
2022-10-02T02:16:01.029Z,14.22
2022-10-02T02:17:01.040Z,14.21
2022-10-02T02:18:00.945Z,14.24
2022-10-02T02:19:00.969Z,14.32
2022-10-02T02:20:00.946Z,14.29
2022-10-02T02:21:00.943Z,14.32
2022-10-02T02:22:00.940Z,14.43
2022-10-02T02:23:00.944Z,14.32
2022-10-02T02:24:00.938Z,14.24
2022-10-02T02:25:00.940Z,14.25
2022-10-02T02:26:00.941Z,14.27
2022-10-02T02:27:00.938Z,14.21
2022-10-02T02:28:00.981Z,14.22
2022-10-02T02:29:00.940Z,14.15
2022-10-02T02:30:00.932Z,14.21
2022-10-02T02:31:00.982Z,14.20
2022-10-02T02:32:00.947Z,14.21
2022-10-02T02:33:00.931Z,14.15
2022-10-02T02:34:00.937Z,14.22
2022-10-02T02:35:00.951Z,14.21
2022-10-02T02:36:00.929Z,14.14
2022-10-02T02:37:00.931Z,14.10
2022-10-02T02:38:00.924Z,14.18
2022-10-02T02:39:00.923Z,14.20
2022-10-02T02:40:00.928Z,14.18
2022-10-02T02:41:00.922Z,14.20
2022-10-02T02:42:00.916Z,14.25
2022-10-02T02:43:00.919Z,14.25
2022-10-02T02:44:00.919Z,14.22
2022-10-02T02:45:00.925Z,14.18
2022-10-02T02:46:00.958Z,14.17
2022-10-02T02:47:00.917Z,14.21
2022-10-02T02:48:00.914Z,14.14
2022-10-02T02:49:00.916Z,14.14
2022-10-02T02:50:00.913Z,14.10
2022-10-02T02:51:00.932Z,14.12
2022-10-02T02:52:00.913Z,14.12
2022-10-02T02:53:00.905Z,14.10
2022-10-02T02:54:00.909Z,14.17
2022-10-02T02:55:00.909Z,14.18
2022-10-02T02:56:00.902Z,14.12
2022-10-02T02:57:00.911Z,14.14
2022-10-02T02:58:00.899Z,13.95
2022-10-02T02:59:00.903Z,14.02
2022-10-02T03:00:00.901Z,13.92
2022-10-02T03:01:00.989Z,13.87
2022-10-02T03:02:00.920Z,13.85
2022-10-02T03:03:00.897Z,13.95
2022-10-02T03:04:00.895Z,13.92
2022-10-02T03:05:00.899Z,13.89
2022-10-02T03:06:00.894Z,13.97
2022-10-02T03:07:00.918Z,13.99
2022-10-02T03:08:00.890Z,13.96
2022-10-02T03:09:00.898Z,13.85
2022-10-02T03:10:00.889Z,13.89
2022-10-02T03:11:00.886Z,13.87
2022-10-02T03:12:00.892Z,13.79
2022-10-02T03:13:00.892Z,13.89
2022-10-02T03:14:00.880Z,13.84
2022-10-02T03:15:00.891Z,13.84
2022-10-02T03:16:00.945Z,13.87
2022-10-02T03:17:00.890Z,13.70
2022-10-02T03:18:00.882Z,13.70
2022-10-02T03:19:00.886Z,13.79
2022-10-02T03:20:00.881Z,13.71
2022-10-02T03:21:00.880Z,13.77
2022-10-02T03:22:00.871Z,13.73
2022-10-02T03:23:00.892Z,13.67
2022-10-02T03:24:00.875Z,13.75
2022-10-02T03:25:00.877Z,13.70
2022-10-02T03:26:00.869Z,13.70
2022-10-02T03:27:00.867Z,13.77
2022-10-02T03:28:00.906Z,13.70
2022-10-02T03:29:00.912Z,13.70
2022-10-02T03:30:00.865Z,13.70
2022-10-02T03:31:00.866Z,13.78
2022-10-02T03:32:00.869Z,13.69
2022-10-02T03:33:00.867Z,13.70
2022-10-02T03:34:00.856Z,13.71
2022-10-02T03:35:00.865Z,13.77
2022-10-02T03:36:00.860Z,13.73
2022-10-02T03:37:00.857Z,13.75
2022-10-02T03:38:00.855Z,13.71
2022-10-02T03:39:23.767Z,13.73
2022-10-02T03:40:00.855Z,13.73
2022-10-02T03:41:00.855Z,13.75
2022-10-02T03:42:00.855Z,13.64
2022-10-02T03:43:00.860Z,13.67
2022-10-02T03:44:00.850Z,13.70
2022-10-02T03:45:00.853Z,13.69
2022-10-02T03:46:00.898Z,13.71
2022-10-02T03:47:00.841Z,13.59
2022-10-02T03:48:00.846Z,13.70
2022-10-02T03:49:00.846Z,13.63
2022-10-02T03:50:00.852Z,13.59
2022-10-02T03:51:00.843Z,13.52
2022-10-02T03:52:00.840Z,13.66
2022-10-02T03:53:00.840Z,13.54
2022-10-02T03:54:00.840Z,13.66
2022-10-02T03:55:00.856Z,13.63
2022-10-02T03:56:00.835Z,13.59
2022-10-02T03:57:00.837Z,13.60
2022-10-02T03:58:00.834Z,13.52
2022-10-02T03:59:00.831Z,13.57
2022-10-02T04:00:00.831Z,13.44
2022-10-02T04:01:00.829Z,13.45
2022-10-02T04:02:00.906Z,13.54
2022-10-02T04:03:00.830Z,13.51
2022-10-02T04:04:00.944Z,13.54
2022-10-02T04:05:00.825Z,13.52
2022-10-02T04:06:00.824Z,13.51
2022-10-02T04:07:00.827Z,13.51
2022-10-02T04:08:00.823Z,13.41
2022-10-02T04:09:00.822Z,13.32
2022-10-02T04:10:00.824Z,13.44
2022-10-02T04:11:00.838Z,13.46
2022-10-02T04:12:00.821Z,13.30
2022-10-02T04:13:00.815Z,13.26
2022-10-02T04:14:00.812Z,13.20
2022-10-02T04:15:00.811Z,13.23
2022-10-02T04:16:00.852Z,13.15
2022-10-02T04:17:00.813Z,13.26
2022-10-02T04:18:00.813Z,13.30
2022-10-02T04:19:00.808Z,13.28
2022-10-02T04:20:00.805Z,13.28
2022-10-02T04:21:00.805Z,13.25
2022-10-02T04:22:00.804Z,13.30
2022-10-02T04:23:00.804Z,13.29
2022-10-02T04:24:00.803Z,13.30
2022-10-02T04:25:00.819Z,13.28
2022-10-02T04:26:00.799Z,13.42
2022-10-02T04:27:00.864Z,13.32
2022-10-02T04:28:00.880Z,13.30
2022-10-02T04:29:00.798Z,13.33
2022-10-02T04:30:00.795Z,13.30
2022-10-02T04:31:00.796Z,13.28
2022-10-02T04:32:00.799Z,13.23
2022-10-02T04:33:00.791Z,13.25
2022-10-02T04:34:00.792Z,13.23
2022-10-02T04:35:00.790Z,13.23
2022-10-02T04:36:00.785Z,13.19
2022-10-02T04:37:00.786Z,13.10
2022-10-02T04:38:00.793Z,13.20
2022-10-02T04:39:00.785Z,13.17
2022-10-02T04:40:00.782Z,13.25
2022-10-02T04:41:00.782Z,13.30
2022-10-02T04:42:00.781Z,13.28
2022-10-02T04:43:00.800Z,13.19
2022-10-02T04:44:00.781Z,13.17
2022-10-02T04:45:00.775Z,13.22
2022-10-02T04:46:00.828Z,13.20
2022-10-02T04:47:00.771Z,13.28
2022-10-02T04:48:00.776Z,13.28
2022-10-02T04:49:00.775Z,13.20
2022-10-02T04:50:00.769Z,13.20
2022-10-02T04:51:00.762Z,13.20
2022-10-02T04:52:00.767Z,13.20
2022-10-02T04:53:00.764Z,13.25
2022-10-02T04:54:00.768Z,13.25
2022-10-02T04:55:00.763Z,13.25
2022-10-02T04:56:00.763Z,13.32
2022-10-02T04:57:00.757Z,13.36
2022-10-02T04:58:00.762Z,13.32
2022-10-02T04:59:00.782Z,13.44
2022-10-02T05:00:00.754Z,13.38
2022-10-02T05:01:00.823Z,13.45
2022-10-02T05:02:00.793Z,13.49
2022-10-02T05:03:00.751Z,13.46
2022-10-02T05:04:04.206Z,13.49
2022-10-02T05:05:00.749Z,13.55
2022-10-02T05:06:00.755Z,13.57
2022-10-02T05:07:00.747Z,13.59
2022-10-02T05:08:00.745Z,13.64
2022-10-02T05:09:00.745Z,13.57
2022-10-02T05:10:00.742Z,13.66
2022-10-02T05:11:00.746Z,13.60
2022-10-02T05:12:00.739Z,13.75
2022-10-02T05:13:00.746Z,13.78
2022-10-02T05:14:00.742Z,13.84
2022-10-02T05:15:00.761Z,13.89
2022-10-02T05:16:00.807Z,13.87
2022-10-02T05:17:00.738Z,13.87
2022-10-02T05:18:00.736Z,13.87
2022-10-02T05:19:00.738Z,13.96
2022-10-02T05:20:00.730Z,14.00
2022-10-02T05:21:00.730Z,14.00
2022-10-02T05:22:00.731Z,14.09
2022-10-02T05:23:00.732Z,14.06
2022-10-02T05:24:00.730Z,14.10
2022-10-02T05:25:00.723Z,14.14
2022-10-02T05:26:00.724Z,14.09
2022-10-02T05:27:00.721Z,14.02
2022-10-02T05:28:00.739Z,14.02
2022-10-02T05:29:00.723Z,13.96
2022-10-02T05:30:00.717Z,14.02
2022-10-02T05:31:00.788Z,14.00
2022-10-02T05:32:00.718Z,14.03
2022-10-02T05:33:00.715Z,14.07
2022-10-02T05:34:00.713Z,14.06
2022-10-02T05:35:00.713Z,14.15
2022-10-02T05:36:00.715Z,14.15
2022-10-02T05:37:00.709Z,14.14
2022-10-02T05:38:00.713Z,14.21
2022-10-02T05:39:00.708Z,14.27
2022-10-02T05:40:00.709Z,14.24
2022-10-02T05:41:00.705Z,14.12
2022-10-02T05:42:00.706Z,14.12
2022-10-02T05:43:00.702Z,14.12
2022-10-02T05:44:00.703Z,14.20
2022-10-02T05:45:00.701Z,14.07
2022-10-02T05:46:00.700Z,14.14
2022-10-02T05:47:00.794Z,14.12
2022-10-02T05:48:00.694Z,14.10
2022-10-02T05:49:00.695Z,14.12
2022-10-02T05:50:00.702Z,14.22
2022-10-02T05:51:00.692Z,14.20
2022-10-02T05:52:00.694Z,14.20
2022-10-02T05:53:00.691Z,14.18
2022-10-02T05:54:00.691Z,14.12
2022-10-02T05:55:00.691Z,14.14
2022-10-02T05:56:00.699Z,14.10
2022-10-02T05:57:00.689Z,14.25
2022-10-02T05:58:00.685Z,14.15
2022-10-02T05:59:00.680Z,14.27
2022-10-02T06:00:00.684Z,14.22
2022-10-02T06:01:00.829Z,14.29
2022-10-02T06:02:00.778Z,14.27
2022-10-02T06:03:00.704Z,14.21
2022-10-02T06:04:00.681Z,14.25
2022-10-02T06:05:00.681Z,14.45
2022-10-02T06:06:00.725Z,14.39
2022-10-02T06:07:00.677Z,14.47
2022-10-02T06:08:00.672Z,14.46
2022-10-02T06:09:00.672Z,14.47
2022-10-02T06:10:00.672Z,14.57
2022-10-02T06:11:00.668Z,14.65
2022-10-02T06:12:00.674Z,14.70
2022-10-02T06:13:00.672Z,14.80
2022-10-02T06:14:00.666Z,14.84
2022-10-02T06:15:00.664Z,15.01
2022-10-02T06:16:00.724Z,15.17
2022-10-02T06:17:00.672Z,15.20
2022-10-02T06:18:00.667Z,15.23
2022-10-02T06:19:00.690Z,15.02
2022-10-02T06:20:03.289Z,15.20
2022-10-02T06:21:00.661Z,15.14
2022-10-02T06:22:00.664Z,15.23
2022-10-02T06:23:00.655Z,15.19
2022-10-02T06:24:00.658Z,15.28
2022-10-02T06:25:00.659Z,15.39
2022-10-02T06:26:00.656Z,15.32
2022-10-02T06:27:00.657Z,15.21
2022-10-02T06:28:00.685Z,15.21
2022-10-02T06:29:00.658Z,15.28
2022-10-02T06:30:00.650Z,15.16
2022-10-02T06:31:00.653Z,15.32
2022-10-02T06:32:00.718Z,15.32
2022-10-02T06:33:00.655Z,15.23
2022-10-02T06:34:00.647Z,15.20
2022-10-02T06:35:00.665Z,15.25
2022-10-02T06:36:00.646Z,15.27
2022-10-02T06:37:00.644Z,15.34
2022-10-02T06:38:00.638Z,15.36
2022-10-02T06:39:00.651Z,15.20
2022-10-02T06:40:00.643Z,15.17
2022-10-02T06:41:00.638Z,15.27
2022-10-02T06:42:00.640Z,15.27
2022-10-02T06:43:00.631Z,15.41
2022-10-02T06:44:00.643Z,15.31
2022-10-02T06:45:00.639Z,15.36
2022-10-02T06:46:00.746Z,15.46
2022-10-02T06:47:00.633Z,15.54
2022-10-02T06:48:00.631Z,15.57
2022-10-02T06:49:00.632Z,15.65
2022-10-02T06:50:00.629Z,15.60
2022-10-02T06:51:00.648Z,15.67
2022-10-02T06:52:00.625Z,15.65
2022-10-02T06:53:00.625Z,15.69
2022-10-02T06:54:00.628Z,15.67
2022-10-02T06:55:00.630Z,15.74
2022-10-02T06:56:00.625Z,15.84
2022-10-02T06:57:00.622Z,15.93
2022-10-02T06:58:00.628Z,15.97
2022-10-02T06:59:00.620Z,15.94
2022-10-02T07:00:00.622Z,15.92
2022-10-02T07:01:00.707Z,15.94
2022-10-02T07:02:00.684Z,16.07
2022-10-02T07:03:00.618Z,16.17
2022-10-02T07:04:00.621Z,16.17
2022-10-02T07:05:00.614Z,16.20
2022-10-02T07:06:00.666Z,16.24
2022-10-02T07:07:00.635Z,16.21
2022-10-02T07:08:00.618Z,16.34
2022-10-02T07:09:00.611Z,16.20
2022-10-02T07:10:00.614Z,16.31
2022-10-02T07:11:00.610Z,16.50
2022-10-02T07:12:00.615Z,16.64
2022-10-02T07:13:00.615Z,16.76
2022-10-02T07:14:00.607Z,16.78
2022-10-02T07:15:00.613Z,16.83
2022-10-02T07:16:00.644Z,16.89
2022-10-02T07:17:00.605Z,17.00
2022-10-02T07:18:00.601Z,16.93
2022-10-02T07:19:00.602Z,16.81
2022-10-02T07:20:00.601Z,16.76
2022-10-02T07:21:00.606Z,16.75
2022-10-02T07:22:00.605Z,16.88
2022-10-02T07:23:00.623Z,17.04
2022-10-02T07:24:02.654Z,17.31
2022-10-02T07:25:00.602Z,17.62
2022-10-02T07:26:00.605Z,17.75
2022-10-02T07:27:00.606Z,17.86
2022-10-02T07:28:00.656Z,18.18
2022-10-02T07:29:00.601Z,18.42
2022-10-02T07:30:00.601Z,18.84
2022-10-02T07:31:00.597Z,19.32
2022-10-02T07:32:00.682Z,19.71
2022-10-02T07:33:00.594Z,19.99
2022-10-02T07:34:00.600Z,19.96
2022-10-02T07:35:00.597Z,20.03
2022-10-02T07:36:00.597Z,20.05
2022-10-02T07:37:00.598Z,20.02
2022-10-02T07:38:00.601Z,20.01
2022-10-02T07:39:00.683Z,20.02
2022-10-02T07:40:00.594Z,20.20
2022-10-02T07:41:00.602Z,20.21
2022-10-02T07:42:00.591Z,20.32
2022-10-02T07:43:00.592Z,20.23
2022-10-02T07:44:00.597Z,20.21
2022-10-02T07:45:00.592Z,20.50
2022-10-02T07:46:00.612Z,20.52
2022-10-02T07:47:00.592Z,20.55
2022-10-02T07:48:00.592Z,20.33
2022-10-02T07:49:00.589Z,20.16
2022-10-02T07:50:00.588Z,20.47
2022-10-02T07:51:00.592Z,20.52
2022-10-02T07:52:00.588Z,20.73
2022-10-02T07:53:00.591Z,20.74
2022-10-02T07:54:00.594Z,20.62
2022-10-02T07:55:00.637Z,20.69
2022-10-02T07:56:00.592Z,20.99
2022-10-02T07:57:00.597Z,21.17
2022-10-02T07:58:00.598Z,21.46
2022-10-02T07:59:00.592Z,21.49
2022-10-02T08:00:00.594Z,21.62
2022-10-02T08:01:00.596Z,21.94
2022-10-02T08:02:00.624Z,21.91
2022-10-02T08:03:00.640Z,22.05
2022-10-02T08:04:00.588Z,22.21
2022-10-02T08:05:00.596Z,21.99
2022-10-02T08:06:00.638Z,21.74
2022-10-02T08:07:00.595Z,21.65
2022-10-02T08:08:00.592Z,21.61
2022-10-02T08:09:00.594Z,21.40
2022-10-02T08:10:00.593Z,21.40
2022-10-02T08:11:00.609Z,21.27
2022-10-02T08:12:00.592Z,21.12
2022-10-02T08:13:00.594Z,21.19
2022-10-02T08:14:00.588Z,21.32
2022-10-02T08:15:00.597Z,21.37
2022-10-02T08:16:00.691Z,21.37
2022-10-02T08:17:00.593Z,21.62
2022-10-02T08:18:16.411Z,22.06
2022-10-02T08:19:00.593Z,22.18
2022-10-02T08:20:00.594Z,22.30
2022-10-02T08:21:00.601Z,22.35
2022-10-02T08:22:00.592Z,22.36
2022-10-02T08:23:00.593Z,22.30
2022-10-02T08:24:00.591Z,22.21
2022-10-02T08:25:00.596Z,22.10
2022-10-02T08:26:00.595Z,22.20
2022-10-02T08:27:00.619Z,22.31
2022-10-02T08:28:00.650Z,22.51
2022-10-02T08:29:00.596Z,22.37
2022-10-02T08:30:00.596Z,22.22
2022-10-02T08:31:00.596Z,22.21
2022-10-02T08:32:00.679Z,22.06
2022-10-02T08:33:00.602Z,21.94
2022-10-02T08:34:00.599Z,21.86
2022-10-02T08:35:00.608Z,21.77
2022-10-02T08:36:00.606Z,21.75
2022-10-02T08:37:00.606Z,21.62
2022-10-02T08:38:00.604Z,21.52
2022-10-02T08:39:00.605Z,21.40
2022-10-02T08:40:00.605Z,21.40
2022-10-02T08:41:00.606Z,21.50
2022-10-02T08:42:00.610Z,21.54
2022-10-02T08:43:00.636Z,21.58
2022-10-02T08:44:00.615Z,21.77
2022-10-02T08:45:00.628Z,21.94
2022-10-02T08:46:00.665Z,22.00
2022-10-02T08:47:00.622Z,21.86
2022-10-02T08:48:00.620Z,21.49
2022-10-02T08:49:00.616Z,21.50
2022-10-02T08:50:00.615Z,21.35
2022-10-02T08:51:00.614Z,21.35
2022-10-02T08:52:00.618Z,21.62
2022-10-02T08:53:00.625Z,21.35
2022-10-02T08:54:00.619Z,21.35
2022-10-02T08:55:00.624Z,21.74
2022-10-02T08:56:00.626Z,22.43
2022-10-02T08:57:00.629Z,22.79
2022-10-02T08:58:00.627Z,22.65
2022-10-02T08:59:00.650Z,22.60
2022-10-02T09:00:00.628Z,22.57
2022-10-02T09:01:00.697Z,22.40
2022-10-02T09:02:00.688Z,22.05
2022-10-02T09:03:00.637Z,21.99
2022-10-02T09:04:00.641Z,21.92
2022-10-02T09:05:00.640Z,21.80
2022-10-02T09:06:00.694Z,21.74
2022-10-02T09:07:00.643Z,21.31
2022-10-02T09:08:00.647Z,21.35
2022-10-02T09:09:00.648Z,21.42
2022-10-02T09:10:00.649Z,21.12
2022-10-02T09:11:00.649Z,21.10
2022-10-02T09:12:00.650Z,21.21
2022-10-02T09:13:00.658Z,21.13
2022-10-02T09:14:00.655Z,21.31
2022-10-02T09:15:00.675Z,21.28
2022-10-02T09:16:00.683Z,21.25
2022-10-02T09:17:00.661Z,21.25
2022-10-02T09:18:00.664Z,21.21
2022-10-02T09:19:00.660Z,21.25
2022-10-02T09:20:00.664Z,21.31
2022-10-02T09:21:00.668Z,21.35
2022-10-02T09:22:00.668Z,21.46
2022-10-02T09:23:00.669Z,21.35
2022-10-02T09:24:00.674Z,21.35
2022-10-02T09:25:00.669Z,21.24
2022-10-02T09:26:00.674Z,21.19
2022-10-02T09:27:00.675Z,20.92
2022-10-02T09:28:00.779Z,20.92
2022-10-02T09:29:00.678Z,20.94
2022-10-02T09:30:00.680Z,20.98
2022-10-02T09:31:00.698Z,21.03
2022-10-02T09:32:00.752Z,21.06
2022-10-02T09:33:00.685Z,21.06
2022-10-02T09:34:00.681Z,20.97
2022-10-02T09:35:00.694Z,20.89
2022-10-02T09:36:00.694Z,20.73
2022-10-02T09:37:00.686Z,20.59
2022-10-02T09:38:00.690Z,20.62
2022-10-02T09:39:00.690Z,20.55
2022-10-02T09:40:00.694Z,20.48
2022-10-02T09:41:00.693Z,20.57
2022-10-02T09:42:00.694Z,20.39
2022-10-02T09:43:00.697Z,20.28
2022-10-02T09:44:00.692Z,20.28
2022-10-02T09:45:01.978Z,20.23
2022-10-02T09:46:00.711Z,20.24
2022-10-02T09:47:00.716Z,20.26
2022-10-02T09:48:00.699Z,20.54
2022-10-02T09:49:00.701Z,20.72
2022-10-02T09:50:00.697Z,20.69
2022-10-02T09:51:00.699Z,20.61
2022-10-02T09:52:00.702Z,20.59
2022-10-02T09:53:00.708Z,20.66
2022-10-02T09:54:00.701Z,20.88
2022-10-02T09:55:00.708Z,20.57
2022-10-02T09:56:00.715Z,20.57
2022-10-02T09:57:00.706Z,20.48
2022-10-02T09:58:00.705Z,20.38
2022-10-02T09:59:00.711Z,20.36
2022-10-02T10:00:00.711Z,20.52
2022-10-02T10:01:00.745Z,21.14
2022-10-02T10:02:00.825Z,22.47
2022-10-02T10:03:00.728Z,23.27
2022-10-02T10:04:00.719Z,24.34
2022-10-02T10:05:06.227Z,24.87
2022-10-02T10:06:00.712Z,25.77
2022-10-02T10:07:00.719Z,26.35
2022-10-02T10:08:00.717Z,26.65
2022-10-02T10:09:00.722Z,27.18
2022-10-02T10:10:00.717Z,27.55
2022-10-02T10:11:00.722Z,27.78
2022-10-02T10:12:00.718Z,28.11
2022-10-02T10:13:00.725Z,28.37
2022-10-02T10:14:00.725Z,28.93
2022-10-02T10:15:00.729Z,28.78
2022-10-02T10:16:00.757Z,28.21
2022-10-02T10:17:00.747Z,27.55
2022-10-02T10:18:00.733Z,27.09
2022-10-02T10:19:00.776Z,26.30
2022-10-02T10:20:00.744Z,25.82
2022-10-02T10:21:00.749Z,25.20
2022-10-02T10:22:00.750Z,24.31
2022-10-02T10:23:00.750Z,23.58
2022-10-02T10:24:00.757Z,23.17
2022-10-02T10:25:00.758Z,22.80
2022-10-02T10:26:00.756Z,22.77
2022-10-02T10:27:00.763Z,22.68
2022-10-02T10:28:00.857Z,22.60
2022-10-02T10:29:00.772Z,22.42
2022-10-02T10:30:00.778Z,22.22
2022-10-02T10:31:00.779Z,21.75
2022-10-02T10:32:00.861Z,21.67
2022-10-02T10:33:00.779Z,21.44
2022-10-02T10:34:00.789Z,21.22
2022-10-02T10:35:00.797Z,21.04
2022-10-02T10:36:00.803Z,20.73
2022-10-02T10:37:00.788Z,20.23
2022-10-02T10:38:00.788Z,20.06
2022-10-02T10:39:00.796Z,20.01
2022-10-02T10:40:00.800Z,20.06
2022-10-02T10:41:00.806Z,20.03
2022-10-02T10:42:00.802Z,21.19
2022-10-02T10:43:07.933Z,22.03
2022-10-02T10:44:00.799Z,23.16
2022-10-02T10:45:00.806Z,24.06
2022-10-02T10:46:00.834Z,24.53
2022-10-02T10:47:00.807Z,25.30
2022-10-02T10:48:00.807Z,24.98
2022-10-02T10:49:00.816Z,25.35
2022-10-02T10:50:00.810Z,26.01
2022-10-02T10:51:00.839Z,26.63
2022-10-02T10:52:00.818Z,27.55
2022-10-02T10:53:00.826Z,27.37
2022-10-02T10:54:02.058Z,27.00
2022-10-02T10:55:00.824Z,26.18
2022-10-02T10:56:00.824Z,25.10
2022-10-02T10:57:00.828Z,24.61
2022-10-02T10:58:00.824Z,24.25
2022-10-02T10:59:00.830Z,23.79
2022-10-02T11:00:00.829Z,23.33
2022-10-02T11:01:00.880Z,22.88
2022-10-02T11:02:00.869Z,22.60
2022-10-02T11:03:00.836Z,22.45
2022-10-02T11:04:00.842Z,22.22
2022-10-02T11:05:00.840Z,21.84
2022-10-02T11:06:00.843Z,21.75
2022-10-02T11:07:00.893Z,21.53
2022-10-02T11:08:00.844Z,21.52
2022-10-02T11:09:00.842Z,21.21
2022-10-02T11:10:00.847Z,21.09
2022-10-02T11:11:00.897Z,20.97
2022-10-02T11:12:00.850Z,20.88
2022-10-02T11:13:00.851Z,20.88
2022-10-02T11:14:00.847Z,20.58
2022-10-02T11:15:00.853Z,20.64
2022-10-02T11:16:00.885Z,20.84
2022-10-02T11:17:00.851Z,20.76
2022-10-02T11:18:00.867Z,20.57
2022-10-02T11:19:00.857Z,20.54
2022-10-02T11:20:00.857Z,20.59
2022-10-02T11:21:00.859Z,20.69
2022-10-02T11:22:00.856Z,20.72
2022-10-02T11:23:00.880Z,20.72
2022-10-02T11:24:00.860Z,20.91
2022-10-02T11:25:00.862Z,20.99
2022-10-02T11:26:00.864Z,21.04
2022-10-02T11:27:00.861Z,20.99
2022-10-02T11:28:00.933Z,20.67
2022-10-02T11:29:00.877Z,20.54
2022-10-02T11:30:00.881Z,20.38
2022-10-02T11:31:00.920Z,20.38
2022-10-02T11:32:00.965Z,20.24
2022-10-02T11:33:00.923Z,20.28
2022-10-02T11:34:00.877Z,20.16
2022-10-02T11:35:00.919Z,20.02
2022-10-02T11:36:00.949Z,19.96
2022-10-02T11:37:00.889Z,20.03
2022-10-02T11:38:04.010Z,19.94
2022-10-02T11:39:00.898Z,20.03
2022-10-02T11:40:00.877Z,19.98
2022-10-02T11:41:00.878Z,19.92
2022-10-02T11:42:00.874Z,19.86
2022-10-02T11:43:00.873Z,19.81
2022-10-02T11:44:00.877Z,19.76
2022-10-02T11:45:00.880Z,19.73
2022-10-02T11:46:01.138Z,19.65
2022-10-02T11:47:00.882Z,19.65
2022-10-02T11:48:00.879Z,19.55
2022-10-02T11:49:00.879Z,19.59
2022-10-02T11:50:00.880Z,19.59
2022-10-02T11:51:00.881Z,19.59
2022-10-02T11:52:00.882Z,19.77
2022-10-02T11:53:00.883Z,20.57
2022-10-02T11:54:00.881Z,21.54
2022-10-02T11:55:00.910Z,22.46
2022-10-02T11:56:00.882Z,23.25
2022-10-02T11:57:00.883Z,24.15
2022-10-02T11:58:00.882Z,24.65
2022-10-02T11:59:00.889Z,25.10
2022-10-02T12:00:00.883Z,25.32
2022-10-02T12:01:00.882Z,25.80
2022-10-02T12:02:01.007Z,25.87
2022-10-02T12:03:00.947Z,26.21
2022-10-02T12:04:00.883Z,26.54
2022-10-02T12:05:00.890Z,26.65
2022-10-02T12:06:00.886Z,26.77
2022-10-02T12:07:00.894Z,26.89
2022-10-02T12:08:00.886Z,26.87
2022-10-02T12:09:00.890Z,27.13
2022-10-02T12:10:00.903Z,27.22
2022-10-02T12:11:00.922Z,27.27
2022-10-02T12:12:00.893Z,27.34
2022-10-02T12:13:00.888Z,27.50
2022-10-02T12:14:00.890Z,27.37
2022-10-02T12:15:00.889Z,27.32
2022-10-02T12:16:00.892Z,27.06
2022-10-02T12:17:00.977Z,26.89
2022-10-02T12:18:00.891Z,26.95
2022-10-02T12:19:00.896Z,26.89
2022-10-02T12:20:00.895Z,27.07
2022-10-02T12:21:00.894Z,26.66
2022-10-02T12:22:00.897Z,26.40
2022-10-02T12:23:00.894Z,26.17
2022-10-02T12:24:00.897Z,25.92
2022-10-02T12:25:00.894Z,25.91
2022-10-02T12:26:00.896Z,25.95
2022-10-02T12:27:00.921Z,25.98
2022-10-02T12:28:00.979Z,25.91
2022-10-02T12:29:00.899Z,25.72
2022-10-02T12:30:00.898Z,25.58
2022-10-02T12:31:00.897Z,25.54
2022-10-02T12:32:00.928Z,25.57
2022-10-02T12:33:00.903Z,25.24
2022-10-02T12:34:00.909Z,25.43
2022-10-02T12:35:00.904Z,25.36
2022-10-02T12:36:00.903Z,25.47
2022-10-02T12:37:00.903Z,25.51
2022-10-02T12:38:00.908Z,25.54
2022-10-02T12:39:00.906Z,25.54
2022-10-02T12:40:00.913Z,25.60
2022-10-02T12:41:00.904Z,25.67
2022-10-02T12:42:00.909Z,25.54
2022-10-02T12:43:00.936Z,25.38
2022-10-02T12:44:00.908Z,25.35
2022-10-02T12:45:00.913Z,25.30
2022-10-02T12:46:01.096Z,25.23
2022-10-02T12:47:00.906Z,25.10
2022-10-02T12:48:00.912Z,25.02
2022-10-02T12:49:00.919Z,24.93
2022-10-02T12:50:00.915Z,24.80
2022-10-02T12:51:05.320Z,24.47
2022-10-02T12:52:00.918Z,24.24